Station Historical Data
Daily Summary for March 5, 2017 Units:  English    Metric   Both
« Previous Day
Next Day »
Daily Weekly Monthly Yearly Custom
  High: Low: Average:
Temperature: 38.8 °F 31.5 °F 33.8 °F
Dew Point: 36.6 °F 29.5 °F 31.7 °F
Humidity: 92 % 91 % 92 %
Wind Speed: 22.0 mph 0.0 mph 5.9 mph
Wind Gust: 31.0 mph - -
Wind:- - SW
Pressure: 30.20 in 29.77 in -
Precipitation: 0.00 in    
Historical Graphs
 
 
Tabular Data for March 5, 2017
Time Temperature Dew Point Pressure Wind Wind Speed Wind Gust Humidity Rainfall Rate (Hourly) solar
00:03 38.6 °F 36.5 °F 29.82 in SW 9.0 mph 12.0 mph 92 % 0.19 in 0.00 W/m2
00:08 38.3 °F 35.9 °F 29.82 in WSW 14.0 mph 14.0 mph 91 % 0.08 in 0.00 W/m2
00:13 38.3 °F 35.9 °F 29.82 in WSW 9.0 mph 13.0 mph 91 % 0.08 in 0.00 W/m2
00:18 38.2 °F 35.8 °F 29.82 in SW 11.0 mph 14.0 mph 91 % 0.20 in 0.00 W/m2
00:23 38.1 °F 35.7 °F 29.81 in West 6.0 mph 20.0 mph 91 % 0.15 in 0.00 W/m2
00:28 38.1 °F 35.7 °F 29.82 in SW 15.0 mph 15.0 mph 91 % 0.13 in 0.00 W/m2
00:33 38.2 °F 35.8 °F 29.81 in WSW 9.0 mph 10.0 mph 91 % 0.16 in 0.00 W/m2
00:38 38.4 °F 36.0 °F 29.81 in SSW 13.0 mph 18.0 mph 91 % 0.24 in 0.00 W/m2
00:43 38.5 °F 36.1 °F 29.81 in WSW 12.0 mph 24.0 mph 91 % 0.18 in 0.00 W/m2
00:48 38.7 °F 36.3 °F 29.81 in SSW 9.0 mph 20.0 mph 91 % 0.16 in 0.00 W/m2
00:53 38.8 °F 36.4 °F 29.82 in WSW 8.0 mph 13.0 mph 91 % 0.14 in 0.00 W/m2
00:58 38.8 °F 36.4 °F 29.81 in SW 22.0 mph 27.0 mph 91 % 0.17 in 0.00 W/m2
01:03 38.8 °F 36.4 °F 29.81 in SW 7.0 mph 31.0 mph 91 % 0.13 in 0.00 W/m2
01:08 38.6 °F 36.5 °F 29.81 in WSW 7.0 mph 19.0 mph 92 % 0.13 in 0.00 W/m2
01:13 38.5 °F 36.1 °F 29.81 in SSW 18.0 mph 24.0 mph 91 % 0.14 in 0.00 W/m2
01:18 38.4 °F 36.0 °F 29.81 in SW 7.0 mph 15.0 mph 91 % 0.07 in 0.00 W/m2
01:23 38.4 °F 36.0 °F 29.81 in SSW 9.0 mph 12.0 mph 91 % 0.04 in 0.00 W/m2
01:28 38.4 °F 36.0 °F 29.81 in South 7.0 mph 20.0 mph 91 % 0.00 in 0.00 W/m2
01:33 38.4 °F 36.0 °F 29.81 in SW 6.0 mph 17.0 mph 91 % 0.00 in 0.00 W/m2
01:38 38.5 °F 36.1 °F 29.81 in South 17.0 mph 18.0 mph 91 % 0.00 in 0.00 W/m2
01:43 38.5 °F 36.1 °F 29.81 in WSW 7.0 mph 18.0 mph 91 % 0.00 in 0.00 W/m2
01:48 38.5 °F 36.1 °F 29.80 in SW 7.0 mph 14.0 mph 91 % 0.00 in 0.00 W/m2
01:53 38.6 °F 36.2 °F 29.81 in Calm   18.0 mph 91 % 0.00 in 0.00 W/m2
01:58 38.6 °F 36.2 °F 29.80 in WSW 17.0 mph 20.0 mph 91 % 0.00 in 0.00 W/m2
02:03 38.6 °F 36.5 °F 29.80 in WSW 4.0 mph 15.0 mph 92 % 0.00 in 0.00 W/m2
02:08 38.6 °F 36.5 °F 29.80 in WSW 3.0 mph 27.0 mph 92 % 0.00 in 0.00 W/m2
02:13 38.6 °F 36.2 °F 29.80 in SW 4.0 mph 18.0 mph 91 % 0.00 in 0.00 W/m2
02:18 38.6 °F 36.2 °F 29.80 in SW 14.0 mph 31.0 mph 91 % 0.00 in 0.00 W/m2
02:23 38.7 °F 36.6 °F 29.81 in WNW 5.0 mph 22.0 mph 92 % 0.00 in 0.00 W/m2
02:28 38.5 °F 36.4 °F 29.81 in SW 19.0 mph 24.0 mph 92 % 0.00 in 0.00 W/m2
02:33 38.5 °F 36.4 °F 29.80 in WSW 12.0 mph 14.0 mph 92 % 0.00 in 0.00 W/m2
02:38 38.5 °F 36.4 °F 29.80 in SW 3.0 mph 12.0 mph 92 % 0.00 in 0.00 W/m2
02:43 38.5 °F 36.4 °F 29.80 in SSW 9.0 mph 18.0 mph 92 % 0.00 in 0.00 W/m2
02:48 38.3 °F 35.9 °F 29.80 in SSW 12.0 mph 22.0 mph 91 % 0.00 in 0.00 W/m2
02:51 38.3 °F 35.9 °F 29.80 in SW 11.0 mph 15.0 mph 91 % 0.00 in 0.00 W/m2
02:56 38.2 °F 35.8 °F 29.80 in Calm     91 % 0.00 in 0.00 W/m2
03:01 38.2 °F 36.1 °F 29.79 in SSW 10.0 mph 10.0 mph 92 % 0.00 in 0.00 W/m2
03:06 38.1 °F 36.0 °F 29.79 in South 8.0 mph 14.0 mph 92 % 0.00 in 0.00 W/m2
03:11 38.0 °F 35.9 °F 29.80 in SW 9.0 mph 14.0 mph 92 % 0.00 in 0.00 W/m2
03:16 38.0 °F 35.6 °F 29.80 in WSW 4.0 mph 4.0 mph 91 % 0.00 in 0.00 W/m2
03:21 37.8 °F 35.4 °F 29.80 in WSW 6.0 mph 10.0 mph 91 % 0.00 in 0.00 W/m2
03:26 37.7 °F 35.3 °F 29.80 in SW 9.0 mph 10.0 mph 91 % 0.00 in 0.00 W/m2
03:31 37.7 °F 35.3 °F 29.80 in WNW 6.0 mph 9.0 mph 91 % 0.00 in 0.00 W/m2
03:36 37.7 °F 35.3 °F 29.80 in SSW 10.0 mph 12.0 mph 91 % 0.00 in 0.00 W/m2
03:41 37.7 °F 35.3 °F 29.80 in SW 7.0 mph 8.0 mph 91 % 0.00 in 0.00 W/m2
03:46 37.6 °F 35.5 °F 29.79 in SSW 3.0 mph 4.0 mph 92 % 0.00 in 0.00 W/m2
03:51 37.5 °F 35.4 °F 29.79 in SW 7.0 mph 8.0 mph 92 % 0.00 in 0.00 W/m2
03:56 37.5 °F 35.4 °F 29.79 in SW 7.0 mph 8.0 mph 92 % 0.00 in 0.00 W/m2
04:01 37.5 °F 35.4 °F 29.79 in SSW 6.0 mph 6.0 mph 92 % 0.00 in 0.00 W/m2
04:06 37.4 °F 35.3 °F 29.79 in SW 12.0 mph 12.0 mph 92 % 0.00 in 0.00 W/m2
04:11 37.4 °F 35.3 °F 29.79 in WSW 6.0 mph 12.0 mph 92 % 0.00 in 0.00 W/m2
04:16 37.3 °F 35.2 °F 29.78 in WSW 13.0 mph 15.0 mph 92 % 0.00 in 0.00 W/m2
04:21 37.2 °F 34.8 °F 29.78 in West 5.0 mph 6.0 mph 91 % 0.00 in 0.00 W/m2
04:26 37.1 °F 34.7 °F 29.78 in WSW 2.0 mph 5.0 mph 91 % 0.00 in 0.00 W/m2
04:31 37.1 °F 35.0 °F 29.78 in WSW 3.0 mph 7.0 mph 92 % 0.00 in 0.00 W/m2
04:36 37.0 °F 34.9 °F 29.78 in WSW 8.0 mph 10.0 mph 92 % 0.00 in 0.00 W/m2
04:37 37.0 °F 34.9 °F 29.78 in WSW 14.0 mph 16.0 mph 92 % 0.00 in 0.00 W/m2
04:42 36.9 °F 34.8 °F 29.78 in West 3.0 mph 15.0 mph 92 % 0.00 in 0.00 W/m2
04:47 36.9 °F 34.8 °F 29.78 in SSW 12.0 mph 14.0 mph 92 % 0.00 in 0.00 W/m2
04:52 36.8 °F 34.4 °F 29.77 in WSW 6.0 mph 17.0 mph 91 % 0.00 in 0.00 W/m2
04:57 36.6 °F 34.5 °F 29.78 in West 9.0 mph 11.0 mph 92 % 0.00 in 0.00 W/m2
04:58 36.6 °F 34.5 °F 29.78 in West 8.0 mph 12.0 mph 92 % 0.00 in 0.00 W/m2
05:03 36.6 °F 34.5 °F 29.78 in SW 12.0 mph 13.0 mph 92 % 0.00 in 0.00 W/m2
05:08 36.6 °F 34.5 °F 29.78 in WNW 7.0 mph 17.0 mph 92 % 0.00 in 0.00 W/m2
05:13 36.4 °F 34.3 °F 29.77 in SW 6.0 mph 11.0 mph 92 % 0.00 in 0.00 W/m2
05:18 36.1 °F 34.0 °F 29.77 in WNW 2.0 mph 12.0 mph 92 % 0.15 in 0.00 W/m2
05:23 35.8 °F 33.7 °F 29.77 in West 7.0 mph 17.0 mph 92 % 0.14 in 0.00 W/m2
05:28 35.6 °F 33.5 °F 29.78 in West 15.0 mph 16.0 mph 92 % 0.12 in 0.00 W/m2
05:33 35.1 °F 33.0 °F 29.78 in SW 9.0 mph 10.0 mph 92 % 0.06 in 0.00 W/m2
05:38 34.6 °F 32.5 °F 29.78 in West 9.0 mph 13.0 mph 92 % 0.12 in 0.00 W/m2
05:43 34.4 °F 32.3 °F 29.78 in SW 6.0 mph 16.0 mph 92 % 0.12 in 0.00 W/m2
05:48 34.3 °F 32.2 °F 29.79 in West 15.0 mph 18.0 mph 92 % 0.07 in 0.00 W/m2
05:53 34.3 °F 32.2 °F 29.79 in SSW 21.0 mph 21.0 mph 92 % 0.10 in 0.00 W/m2
05:58 34.2 °F 32.1 °F 29.78 in WSW 5.0 mph 14.0 mph 92 % 0.10 in 0.00 W/m2
06:03 34.1 °F 32.0 °F 29.79 in Calm   7.0 mph 92 % 0.06 in 0.00 W/m2
06:08 33.9 °F 31.8 °F 29.79 in SW 7.0 mph 11.0 mph 92 % 0.06 in 0.00 W/m2
06:13 33.8 °F 31.7 °F 29.80 in WNW 5.0 mph 13.0 mph 92 % 0.07 in 0.00 W/m2
06:18 33.7 °F 31.6 °F 29.79 in West 4.0 mph 10.0 mph 92 % 0.08 in 0.00 W/m2
06:23 33.5 °F 31.4 °F 29.80 in WNW 4.0 mph 9.0 mph 92 % 0.13 in 0.00 W/m2
06:28 33.4 °F 31.3 °F 29.80 in West 6.0 mph 9.0 mph 92 % 0.09 in 0.00 W/m2
06:33 33.3 °F 31.2 °F 29.80 in West 1.0 mph 8.0 mph 92 % 0.05 in 0.00 W/m2
06:38 33.3 °F 31.2 °F 29.80 in WSW 2.0 mph 7.0 mph 92 % 0.05 in 0.00 W/m2
06:43 33.3 °F 31.2 °F 29.81 in SW 3.0 mph 9.0 mph 92 % 0.05 in 0.00 W/m2
06:48 33.4 °F 31.3 °F 29.81 in Calm   6.0 mph 92 % 0.04 in 0.00 W/m2
06:53 33.4 °F 31.3 °F 29.81 in Calm   3.0 mph 92 % 0.00 in 0.00 W/m2
06:58 33.4 °F 31.3 °F 29.81 in WSW 4.0 mph 10.0 mph 92 % 0.00 in 5.00 W/m2
07:03 33.4 °F 31.3 °F 29.81 in West 7.0 mph 17.0 mph 92 % 0.00 in 21.00 W/m2
07:08 33.4 °F 31.3 °F 29.81 in WSW 6.0 mph 10.0 mph 92 % 0.00 in 5.00 W/m2
07:13 33.4 °F 31.3 °F 29.82 in WSW 5.0 mph 9.0 mph 92 % 0.00 in 7.00 W/m2
07:18 33.4 °F 31.3 °F 29.82 in SSW 7.0 mph 15.0 mph 92 % 0.00 in 26.00 W/m2
07:23 33.3 °F 31.2 °F 29.82 in Calm   12.0 mph 92 % 0.04 in 11.00 W/m2
07:28 33.4 °F 31.3 °F 29.83 in SW 2.0 mph 7.0 mph 92 % 0.04 in 14.00 W/m2
07:33 33.4 °F 31.3 °F 29.83 in WSW 8.0 mph 11.0 mph 92 % 0.04 in 12.00 W/m2
07:38 33.4 °F 31.3 °F 29.84 in SW 9.0 mph 14.0 mph 92 % 0.00 in 7.00 W/m2
07:43 33.4 °F 31.3 °F 29.84 in West 2.0 mph 16.0 mph 92 % 0.00 in 5.00 W/m2
07:48 33.2 °F 31.1 °F 29.84 in Calm   8.0 mph 92 % 0.00 in 7.00 W/m2
07:53 32.9 °F 30.8 °F 29.85 in SW 8.0 mph 13.0 mph 92 % 0.00 in 12.00 W/m2
07:58 32.8 °F 30.7 °F 29.85 in WSW 3.0 mph 11.0 mph 92 % 0.00 in 14.00 W/m2
08:03 32.6 °F 30.5 °F 29.84 in WSW 6.0 mph 15.0 mph 92 % 0.00 in 12.00 W/m2
08:08 32.6 °F 30.5 °F 29.84 in Calm   5.0 mph 92 % 0.00 in 12.00 W/m2
08:13 32.5 °F 30.4 °F 29.84 in Calm   4.0 mph 92 % 0.06 in 9.00 W/m2
08:18 32.6 °F 30.5 °F 29.85 in WSW 7.0 mph 12.0 mph 92 % 0.06 in 19.00 W/m2
08:23 32.6 °F 30.5 °F 29.85 in WSW 13.0 mph 17.0 mph 92 % 0.06 in 19.00 W/m2
08:28 32.6 °F 30.5 °F 29.86 in WSW 9.0 mph 12.0 mph 92 % 0.06 in 12.00 W/m2
08:33 32.7 °F 30.6 °F 29.87 in WSW 6.0 mph 15.0 mph 92 % 0.05 in 16.00 W/m2
08:38 32.6 °F 30.5 °F 29.87 in WSW 6.0 mph 8.0 mph 92 % 0.05 in 21.00 W/m2
08:43 32.5 °F 30.4 °F 29.86 in WSW 6.0 mph 7.0 mph 92 % 0.10 in 35.00 W/m2
08:48 32.4 °F 30.3 °F 29.86 in Calm   9.0 mph 92 % 0.08 in 49.00 W/m2
08:53 32.3 °F 30.2 °F 29.86 in WSW 1.0 mph 10.0 mph 92 % 0.08 in 44.00 W/m2
08:58 32.3 °F 30.2 °F 29.87 in Calm     92 % 0.05 in 21.00 W/m2
09:03 32.4 °F 30.3 °F 29.87 in Calm   7.0 mph 92 % 0.04 in 46.00 W/m2
09:08 32.4 °F 30.3 °F 29.87 in WSW 5.0 mph 10.0 mph 92 % 0.00 in 86.00 W/m2
09:13 32.4 °F 30.3 °F 29.87 in Calm   10.0 mph 92 % 0.00 in 98.00 W/m2
09:18 32.5 °F 30.4 °F 29.87 in WSW 5.0 mph 7.0 mph 92 % 0.00 in 114.00 W/m2
09:23 32.5 °F 30.4 °F 29.87 in Calm   4.0 mph 92 % 0.00 in 91.00 W/m2
09:28 32.5 °F 30.4 °F 29.88 in WSW 5.0 mph 7.0 mph 92 % 0.00 in 86.00 W/m2
09:33 32.5 °F 30.4 °F 29.88 in WSW 3.0 mph 9.0 mph 92 % 0.00 in 100.00 W/m2
09:38 32.5 °F 30.4 °F 29.88 in WSW 3.0 mph 10.0 mph 92 % 0.00 in 192.00 W/m2
09:43 32.5 °F 30.4 °F 29.88 in Calm     92 % 0.00 in 153.00 W/m2
09:48 32.5 °F 30.4 °F 29.89 in WSW 6.0 mph 10.0 mph 92 % 0.00 in 146.00 W/m2
09:53 32.5 °F 30.4 °F 29.89 in Calm   6.0 mph 92 % 0.00 in 123.00 W/m2
09:58 32.6 °F 30.5 °F 29.89 in WSW 3.0 mph 10.0 mph 92 % 0.00 in 234.00 W/m2
10:03 32.6 °F 30.5 °F 29.90 in WSW 5.0 mph 14.0 mph 92 % 0.00 in 185.00 W/m2
10:08 32.6 °F 30.5 °F 29.90 in WSW 7.0 mph 10.0 mph 92 % 0.00 in 278.00 W/m2
10:13 32.7 °F 30.6 °F 29.90 in West 3.0 mph 11.0 mph 92 % 0.00 in 190.00 W/m2
10:18 32.7 °F 30.6 °F 29.91 in Calm   10.0 mph 92 % 0.00 in 181.00 W/m2
10:23 32.8 °F 30.7 °F 29.91 in WSW 3.0 mph 10.0 mph 92 % 0.00 in 139.00 W/m2
10:28 32.8 °F 30.7 °F 29.91 in Calm   8.0 mph 92 % 0.00 in 230.00 W/m2
10:33 32.9 °F 30.8 °F 29.91 in SSW 3.0 mph 11.0 mph 92 % 0.00 in 241.00 W/m2
10:38 32.9 °F 30.8 °F 29.91 in SW 4.0 mph 9.0 mph 92 % 0.00 in 163.00 W/m2
10:43 33.0 °F 30.9 °F 29.92 in SSW 6.0 mph 12.0 mph 92 % 0.00 in 264.00 W/m2
10:48 33.0 °F 30.9 °F 29.92 in SW 6.0 mph 11.0 mph 92 % 0.00 in 230.00 W/m2
10:53 33.0 °F 30.9 °F 29.92 in SW 2.0 mph 10.0 mph 92 % 0.00 in 336.00 W/m2
10:58 33.2 °F 31.1 °F 29.92 in Calm   12.0 mph 92 % 0.00 in 490.00 W/m2
11:03 33.2 °F 31.1 °F 29.92 in SSW 7.0 mph 14.0 mph 92 % 0.00 in 295.00 W/m2
11:08 33.3 °F 31.2 °F 29.92 in Calm   11.0 mph 92 % 0.00 in 202.00 W/m2
11:13 33.3 °F 31.2 °F 29.93 in SSW 6.0 mph 14.0 mph 92 % 0.00 in 160.00 W/m2
11:18 33.4 °F 31.3 °F 29.93 in WSW 6.0 mph 11.0 mph 92 % 0.00 in 84.00 W/m2
11:23 33.3 °F 31.2 °F 29.93 in WSW 6.0 mph 10.0 mph 92 % 0.00 in 90.00 W/m2
11:28 33.3 °F 31.2 °F 29.93 in Calm   8.0 mph 92 % 0.00 in 190.00 W/m2
11:33 33.3 °F 31.2 °F 29.92 in Calm     92 % 0.00 in 149.00 W/m2
11:38 33.3 °F 31.2 °F 29.92 in Calm     92 % 0.00 in 60.00 W/m2
11:43 33.3 °F 31.2 °F 29.92 in Calm     92 % 0.00 in 37.00 W/m2
11:48 33.4 °F 31.3 °F 29.92 in SW 4.0 mph 11.0 mph 92 % 0.00 in 18.00 W/m2
11:53 33.3 °F 31.2 °F 29.93 in WSW 6.0 mph 13.0 mph 92 % 0.00 in 21.00 W/m2
11:58 33.2 °F 31.1 °F 29.93 in Calm   10.0 mph 92 % 0.00 in 97.00 W/m2
12:03 33.0 °F 30.9 °F 29.93 in SW 2.0 mph 9.0 mph 92 % 0.00 in 230.00 W/m2
12:08 32.9 °F 30.8 °F 29.93 in WSW 2.0 mph 6.0 mph 92 % 0.00 in 294.00 W/m2
12:13 32.8 °F 30.7 °F 29.92 in Calm   7.0 mph 92 % 0.00 in 292.00 W/m2
12:18 32.8 °F 30.7 °F 29.92 in WSW 4.0 mph 8.0 mph 92 % 0.15 in 243.00 W/m2
12:23 32.9 °F 30.8 °F 29.92 in Calm   9.0 mph 92 % 0.13 in 111.00 W/m2
12:24 32.9 °F 30.8 °F 29.92 in SW 6.0 mph 9.0 mph 92 % 0.13 in 83.00 W/m2
12:29 32.9 °F 30.8 °F 29.92 in WSW 8.0 mph 8.0 mph 92 % 0.09 in 37.00 W/m2
12:34 32.8 °F 30.7 °F 29.92 in WSW 8.0 mph 11.0 mph 92 % 0.07 in 25.00 W/m2
12:39 32.8 °F 30.7 °F 29.92 in WSW 8.0 mph 11.0 mph 92 % 0.07 in 40.00 W/m2
12:44 32.8 °F 30.7 °F 29.92 in SW 9.0 mph 14.0 mph 92 % 0.04 in 132.00 W/m2
12:49 32.7 °F 30.6 °F 29.92 in WSW 6.0 mph 10.0 mph 92 % 0.00 in 214.00 W/m2
12:54 32.7 °F 30.6 °F 29.92 in WSW 2.0 mph 11.0 mph 92 % 0.00 in 206.00 W/m2
12:59 32.7 °F 30.6 °F 29.92 in Calm   8.0 mph 92 % 0.12 in 515.00 W/m2
13:04 32.9 °F 30.8 °F 29.92 in WSW 8.0 mph 13.0 mph 92 % 0.10 in 285.00 W/m2
13:09 33.0 °F 30.9 °F 29.92 in SW 7.0 mph 14.0 mph 92 % 0.06 in 352.00 W/m2
13:14 33.1 °F 31.0 °F 29.92 in SW 8.0 mph 11.0 mph 92 % 0.06 in 446.00 W/m2
13:19 33.3 °F 31.2 °F 29.91 in SW 7.0 mph 15.0 mph 92 % 0.06 in 436.00 W/m2
13:24 33.5 °F 31.4 °F 29.92 in WSW 9.0 mph 19.0 mph 92 % 0.04 in 311.00 W/m2
13:29 33.6 °F 31.5 °F 29.92 in SW 2.0 mph 10.0 mph 92 % 0.00 in 142.00 W/m2
13:34 33.6 °F 31.5 °F 29.92 in SW 7.0 mph 15.0 mph 92 % 0.00 in 113.00 W/m2
13:39 33.6 °F 31.5 °F 29.92 in WSW 10.0 mph 18.0 mph 92 % 0.00 in 95.00 W/m2
13:44 33.5 °F 31.4 °F 29.93 in SW 15.0 mph 18.0 mph 92 % 0.00 in 35.00 W/m2
13:49 33.2 °F 31.1 °F 29.93 in WSW 13.0 mph 20.0 mph 92 % 0.00 in 26.00 W/m2
13:54 32.9 °F 30.8 °F 29.94 in WSW 14.0 mph 17.0 mph 92 % 0.00 in 28.00 W/m2
13:59 32.5 °F 30.4 °F 29.94 in WSW 6.0 mph 24.0 mph 92 % 0.00 in 58.00 W/m2
14:01 32.4 °F 30.3 °F 29.94 in WSW 9.0 mph 24.0 mph 92 % 0.00 in 72.00 W/m2
14:06 32.2 °F 30.1 °F 29.94 in WSW 16.0 mph 16.0 mph 92 % 0.00 in 120.00 W/m2
14:11 32.1 °F 30.0 °F 29.94 in WSW 9.0 mph 17.0 mph 92 % 0.00 in 156.00 W/m2
14:16 32.0 °F 29.9 °F 29.93 in WSW 2.0 mph 14.0 mph 92 % 0.10 in 258.00 W/m2
14:21 32.0 °F 29.9 °F 29.94 in SW 5.0 mph 5.0 mph 92 % 0.13 in 267.00 W/m2
14:26 32.0 °F 29.9 °F 29.94 in SSW 10.0 mph 12.0 mph 92 % 0.08 in 359.00 W/m2
14:31 32.0 °F 29.9 °F 29.94 in SW 6.0 mph 12.0 mph 92 % 0.08 in 316.00 W/m2
14:36 32.1 °F 30.0 °F 29.94 in SW 6.0 mph 10.0 mph 92 % 0.07 in 401.00 W/m2
14:41 32.1 °F 30.0 °F 29.93 in SSW 2.0 mph 3.0 mph 92 % 0.06 in 480.00 W/m2
14:42 32.1 °F 30.0 °F 29.94 in SSW 4.0 mph 11.0 mph 92 % 0.06 in 629.00 W/m2
14:47 32.2 °F 30.1 °F 29.94 in SW 10.0 mph 10.0 mph 92 % 0.05 in 529.00 W/m2
14:52 32.4 °F 30.3 °F 29.95 in SW 6.0 mph 6.0 mph 92 % 0.04 in 684.00 W/m2
14:57 32.5 °F 30.4 °F 29.94 in South 2.0 mph 9.0 mph 92 % 0.00 in 455.00 W/m2
15:02 32.6 °F 30.5 °F 29.95 in SW 7.0 mph 13.0 mph 92 % 0.00 in 652.00 W/m2
15:07 32.7 °F 30.6 °F 29.95 in SSW 4.0 mph 15.0 mph 92 % 0.00 in 608.00 W/m2
15:12 32.7 °F 30.6 °F 29.95 in WSW 13.0 mph 13.0 mph 92 % 0.00 in 647.00 W/m2
15:17 32.8 °F 30.7 °F 29.96 in SW 9.0 mph 12.0 mph 92 % 0.00 in 601.00 W/m2
15:22 32.8 °F 30.7 °F 29.97 in Calm   8.0 mph 92 % 0.00 in 135.00 W/m2
15:27 32.8 °F 30.7 °F 29.97 in WSW 6.0 mph 12.0 mph 92 % 0.00 in 139.00 W/m2
15:32 32.8 °F 30.7 °F 29.97 in SW 3.0 mph 12.0 mph 92 % 0.00 in 114.00 W/m2
15:37 32.7 °F 30.6 °F 29.97 in South 7.0 mph 7.0 mph 92 % 0.00 in 105.00 W/m2
15:42 32.6 °F 30.5 °F 29.98 in SSW 10.0 mph 14.0 mph 92 % 0.00 in 199.00 W/m2
15:47 32.6 °F 30.5 °F 29.98 in South 6.0 mph 6.0 mph 92 % 0.00 in 179.00 W/m2
15:52 32.7 °F 30.6 °F 29.98 in SW 7.0 mph 9.0 mph 92 % 0.00 in 153.00 W/m2
15:57 32.8 °F 30.7 °F 29.98 in SSW 6.0 mph 9.0 mph 92 % 0.00 in 93.00 W/m2
16:02 32.8 °F 30.7 °F 29.99 in Calm   7.0 mph 92 % 0.00 in 84.00 W/m2
16:07 32.8 °F 30.7 °F 29.99 in SSW 4.0 mph 9.0 mph 92 % 0.00 in 336.00 W/m2
16:12 32.9 °F 30.8 °F 29.99 in SSW 3.0 mph 3.0 mph 92 % 0.00 in 308.00 W/m2
16:17 33.0 °F 30.9 °F 29.99 in Calm   5.0 mph 92 % 0.00 in 83.00 W/m2
16:22 33.0 °F 30.9 °F 29.99 in South 5.0 mph 7.0 mph 92 % 0.00 in 28.00 W/m2
16:27 33.0 °F 30.9 °F 29.99 in South 4.0 mph 8.0 mph 92 % 0.00 in 62.00 W/m2
16:32 33.0 °F 30.9 °F 29.99 in SSW 6.0 mph 11.0 mph 92 % 0.00 in 179.00 W/m2
16:37 33.0 °F 30.9 °F 30.00 in SSW 5.0 mph 11.0 mph 92 % 0.00 in 98.00 W/m2
16:42 33.1 °F 31.0 °F 30.00 in SSE 10.0 mph 10.0 mph 92 % 0.00 in 272.00 W/m2
16:47 33.1 °F 31.0 °F 30.00 in Calm   9.0 mph 92 % 0.00 in 176.00 W/m2
16:52 33.1 °F 31.0 °F 30.00 in South 9.0 mph 9.0 mph 92 % 0.00 in 134.00 W/m2
16:57 33.1 °F 31.0 °F 30.00 in SSW 3.0 mph 12.0 mph 92 % 0.00 in 111.00 W/m2
17:02 33.1 °F 31.0 °F 30.00 in SSW 5.0 mph 14.0 mph 92 % 0.00 in 114.00 W/m2
17:07 33.1 °F 31.0 °F 30.00 in South 2.0 mph 10.0 mph 92 % 0.00 in 77.00 W/m2
17:12 33.1 °F 31.0 °F 30.01 in SSW 3.0 mph 11.0 mph 92 % 0.00 in 53.00 W/m2
17:17 33.1 °F 31.0 °F 30.01 in SW 11.0 mph 15.0 mph 92 % 0.00 in 39.00 W/m2
17:22 33.0 °F 30.9 °F 30.01 in SW 4.0 mph 12.0 mph 92 % 0.00 in 30.00 W/m2
17:27 33.0 °F 30.9 °F 30.02 in SSW 9.0 mph 11.0 mph 92 % 0.00 in 23.00 W/m2
17:32 32.9 °F 30.8 °F 30.02 in SSW 4.0 mph 9.0 mph 92 % 0.00 in 21.00 W/m2
17:37 32.9 °F 30.8 °F 30.02 in SSW 2.0 mph 9.0 mph 92 % 0.00 in 18.00 W/m2
17:42 32.9 °F 30.8 °F 30.02 in SSW 5.0 mph 8.0 mph 92 % 0.00 in 11.00 W/m2
17:47 32.9 °F 30.8 °F 30.02 in SSW 5.0 mph 5.0 mph 92 % 0.00 in 11.00 W/m2
17:53 32.8 °F 30.7 °F 30.03 in SW 7.0 mph 9.0 mph 92 % 0.00 in 14.00 W/m2
17:58 32.8 °F 30.7 °F 30.03 in SW 7.0 mph 12.0 mph 92 % 0.00 in 11.00 W/m2
18:03 32.8 °F 30.7 °F 30.04 in SSW 8.0 mph 10.0 mph 92 % 0.00 in 0.00 W/m2
18:08 32.8 °F 30.7 °F 30.04 in SW 3.0 mph 9.0 mph 92 % 0.00 in 0.00 W/m2
18:13 32.8 °F 30.7 °F 30.04 in SSW 2.0 mph 9.0 mph 92 % 0.00 in 0.00 W/m2
18:18 32.8 °F 30.7 °F 30.05 in Calm   10.0 mph 92 % 0.00 in 0.00 W/m2
18:23 32.7 °F 30.6 °F 30.05 in Calm   8.0 mph 92 % 0.00 in 0.00 W/m2
18:28 32.7 °F 30.6 °F 30.05 in WSW 8.0 mph 8.0 mph 92 % 0.00 in 0.00 W/m2
18:33 32.6 °F 30.5 °F 30.05 in SW 10.0 mph 11.0 mph 92 % 0.00 in 0.00 W/m2
18:38 32.5 °F 30.4 °F 30.06 in SW 7.0 mph 12.0 mph 92 % 0.00 in 0.00 W/m2
18:43 32.3 °F 30.2 °F 30.06 in SW 2.0 mph 7.0 mph 92 % 0.00 in 0.00 W/m2
18:48 32.3 °F 30.2 °F 30.07 in Calm   8.0 mph 92 % 0.00 in 0.00 W/m2
18:53 32.2 °F 30.1 °F 30.07 in SW 2.0 mph 5.0 mph 92 % 0.00 in 0.00 W/m2
18:58 32.1 °F 30.0 °F 30.07 in SW 4.0 mph 6.0 mph 92 % 0.00 in 0.00 W/m2
19:03 32.0 °F 29.9 °F 30.07 in Calm   7.0 mph 92 % 0.00 in 0.00 W/m2
19:04 32.0 °F 29.9 °F 30.07 in Calm   7.0 mph 92 % 0.00 in 0.00 W/m2
19:09 32.0 °F 29.9 °F 30.08 in Calm   6.0 mph 92 % 0.00 in 0.00 W/m2
19:14 32.0 °F 29.9 °F 30.08 in Calm     92 % 0.00 in 0.00 W/m2
19:19 31.9 °F 29.8 °F 30.08 in Calm     92 % 0.00 in 0.00 W/m2
19:24 32.0 °F 29.9 °F 30.08 in SW 2.0 mph 10.0 mph 92 % 0.00 in 0.00 W/m2
19:29 32.0 °F 29.9 °F 30.08 in Calm   11.0 mph 92 % 0.00 in 0.00 W/m2
19:34 32.1 °F 30.0 °F 30.08 in SSW 5.0 mph 7.0 mph 92 % 0.00 in 0.00 W/m2
19:39 32.1 °F 30.0 °F 30.08 in SSW 1.0 mph 9.0 mph 92 % 0.00 in 0.00 W/m2
19:44 32.2 °F 30.1 °F 30.08 in SSW 4.0 mph 10.0 mph 92 % 0.00 in 0.00 W/m2
19:49 32.2 °F 30.1 °F 30.08 in SSW 6.0 mph 12.0 mph 92 % 0.00 in 0.00 W/m2
19:54 32.2 °F 30.1 °F 30.08 in SSW 5.0 mph 10.0 mph 92 % 0.00 in 0.00 W/m2
19:59 32.2 °F 30.1 °F 30.08 in South 4.0 mph 12.0 mph 92 % 0.00 in 0.00 W/m2
20:04 32.2 °F 30.1 °F 30.09 in South 5.0 mph 8.0 mph 92 % 0.00 in 0.00 W/m2
20:09 32.2 °F 30.1 °F 30.09 in South 4.0 mph 9.0 mph 92 % 0.00 in 0.00 W/m2
20:14 32.1 °F 30.0 °F 30.10 in SSE 6.0 mph 10.0 mph 92 % 0.00 in 0.00 W/m2
20:19 32.1 °F 30.0 °F 30.10 in SSE 5.0 mph 10.0 mph 92 % 0.00 in 0.00 W/m2
20:24 32.0 °F 29.9 °F 30.10 in SSE 9.0 mph 11.0 mph 92 % 0.00 in 0.00 W/m2
20:29 32.0 °F 29.9 °F 30.10 in SSE 6.0 mph 7.0 mph 92 % 0.00 in 0.00 W/m2
20:34 31.9 °F 29.8 °F 30.11 in South 6.0 mph 10.0 mph 92 % 0.00 in 0.00 W/m2
20:39 31.8 °F 29.8 °F 30.11 in South 4.0 mph 10.0 mph 92 % 0.00 in 0.00 W/m2
20:44 31.7 °F 29.6 °F 30.12 in South 5.0 mph 10.0 mph 92 % 0.00 in 0.00 W/m2
20:49 31.7 °F 29.6 °F 30.12 in South 7.0 mph 13.0 mph 92 % 0.00 in 0.00 W/m2
20:54 31.6 °F 29.5 °F 30.12 in South 10.0 mph 12.0 mph 92 % 0.00 in 0.00 W/m2
20:59 31.6 °F 29.5 °F 30.13 in South 5.0 mph 12.0 mph 92 % 0.00 in 0.00 W/m2
21:04 31.5 °F 29.5 °F 30.13 in South 4.0 mph 15.0 mph 92 % 0.00 in 0.00 W/m2
21:09 31.5 °F 29.5 °F 30.13 in South 9.0 mph 10.0 mph 92 % 0.00 in 0.00 W/m2
21:15 31.5 °F 29.5 °F 30.14 in South 8.0 mph 14.0 mph 92 % 0.00 in 0.00 W/m2
21:20 31.5 °F 29.5 °F 30.14 in South 10.0 mph 12.0 mph 92 % 0.00 in 0.00 W/m2
21:25 31.5 °F 29.5 °F 30.14 in SSE 2.0 mph 12.0 mph 92 % 0.00 in 0.00 W/m2
21:30 31.5 °F 29.5 °F 30.14 in South 10.0 mph 11.0 mph 92 % 0.00 in 0.00 W/m2
21:35 31.5 °F 29.5 °F 30.14 in South 7.0 mph 13.0 mph 92 % 0.00 in 0.00 W/m2
21:40 31.5 °F 29.5 °F 30.14 in SSE 2.0 mph 11.0 mph 92 % 0.00 in 0.00 W/m2
21:45 31.5 °F 29.5 °F 30.14 in SSE 10.0 mph 12.0 mph 92 % 0.00 in 0.00 W/m2
21:50 31.5 °F 29.5 °F 30.15 in South 7.0 mph 10.0 mph 92 % 0.00 in 0.00 W/m2
21:55 31.5 °F 29.5 °F 30.15 in South 5.0 mph 10.0 mph 92 % 0.00 in 0.00 W/m2
22:00 31.6 °F 29.5 °F 30.15 in SSE 6.0 mph 10.0 mph 92 % 0.00 in 0.00 W/m2
22:05 31.5 °F 29.5 °F 30.15 in SSE 5.0 mph 10.0 mph 92 % 0.00 in 0.00 W/m2
22:10 31.5 °F 29.5 °F 30.16 in South 6.0 mph 11.0 mph 92 % 0.00 in 0.00 W/m2
22:15 31.6 °F 29.5 °F 30.16 in South 9.0 mph 10.0 mph 92 % 0.00 in 0.00 W/m2
22:20 31.6 °F 29.5 °F 30.17 in SSE 7.0 mph 13.0 mph 92 % 0.00 in 0.00 W/m2
22:25 31.6 °F 29.5 °F 30.17 in SSE 7.0 mph 13.0 mph 92 % 0.00 in 0.00 W/m2
22:30 31.7 °F 29.6 °F 30.17 in South 8.0 mph 13.0 mph 92 % 0.00 in 0.00 W/m2
22:35 31.7 °F 29.6 °F 30.17 in South 4.0 mph 8.0 mph 92 % 0.00 in 0.00 W/m2
22:40 31.8 °F 29.8 °F 30.17 in South 9.0 mph 14.0 mph 92 % 0.00 in 0.00 W/m2
22:41 31.8 °F 29.8 °F 30.17 in South 9.0 mph 11.0 mph 92 % 0.00 in 0.00 W/m2
22:46 31.9 °F 29.8 °F 30.18 in South 4.0 mph 6.0 mph 92 % 0.00 in 0.00 W/m2
22:51 31.9 °F 29.8 °F 30.18 in SSE 4.0 mph 8.0 mph 92 % 0.00 in 0.00 W/m2
22:56 31.9 °F 29.8 °F 30.18 in South 9.0 mph 10.0 mph 92 % 0.00 in 0.00 W/m2
23:01 31.9 °F 29.8 °F 30.18 in SSE 2.0 mph 5.0 mph 92 % 0.00 in 0.00 W/m2
23:06 32.0 °F 29.9 °F 30.18 in SSW 2.0 mph 8.0 mph 92 % 0.00 in 0.00 W/m2
23:11 32.0 °F 29.9 °F 30.18 in SSE 5.0 mph 7.0 mph 92 % 0.00 in 0.00 W/m2
23:16 31.9 °F 29.8 °F 30.19 in SSE 8.0 mph 11.0 mph 92 % 0.00 in 0.00 W/m2
23:21 32.0 °F 29.9 °F 30.18 in South 11.0 mph 11.0 mph 92 % 0.00 in 0.00 W/m2
23:26 31.9 °F 29.8 °F 30.19 in South 9.0 mph 19.0 mph 92 % 0.00 in 0.00 W/m2
23:31 31.9 °F 29.8 °F 30.19 in SSW 8.0 mph 10.0 mph 92 % 0.00 in 0.00 W/m2
23:36 31.9 °F 29.8 °F 30.19 in SSE 7.0 mph 13.0 mph 92 % 0.00 in 0.00 W/m2
23:41 31.9 °F 29.8 °F 30.19 in SSE 12.0 mph 14.0 mph 92 % 0.00 in 0.00 W/m2
23:46 31.8 °F 29.8 °F 30.19 in SSE 8.0 mph 9.0 mph 92 % 0.00 in 0.00 W/m2
23:51 31.8 °F 29.8 °F 30.20 in South 7.0 mph 15.0 mph 92 % 0.00 in 0.00 W/m2
23:56 31.8 °F 29.8 °F 30.20 in South 12.0 mph 12.0 mph 92 % 0.00 in 0.00 W/m2
Juneau County Weather
Compliments of Weather Underground - 4.5 mb
 WU-history PHP script courtesy of   Juneau County Weather.
powered by Cumulus v1.9.3 (1059)
Ambient Weather VWS v14.00
Top Contact Website Map Copyright © 2007 - 2018 Foresthillweather.com Never base important decisions on this or any weather information obtained from the Internet